createdAt,value
2023-02-15T00:01:08.564Z,1.00
2023-02-15T00:04:15.879Z,1.20
2023-02-15T00:07:21.854Z,1.30
2023-02-15T00:10:27.894Z,1.40
2023-02-15T00:13:36.636Z,1.40
2023-02-15T00:16:44.280Z,1.50
2023-02-15T00:19:50.425Z,1.50
2023-02-15T00:22:56.925Z,1.40
2023-02-15T00:26:07.381Z,1.30
2023-02-15T00:29:15.928Z,1.20
2023-02-15T00:32:21.676Z,1.10
2023-02-15T00:35:27.735Z,1.00
2023-02-15T00:38:34.156Z,1.00
2023-02-15T00:41:40.592Z,0.90
2023-02-15T00:44:48.139Z,0.90
2023-02-15T00:47:54.175Z,0.80
2023-02-15T00:51:02.394Z,0.70
2023-02-15T00:54:09.445Z,0.70
2023-02-15T00:57:15.960Z,0.70
2023-02-15T01:00:23.330Z,0.60
2023-02-15T01:03:29.453Z,0.60
2023-02-15T01:06:35.135Z,0.50
2023-02-15T01:09:41.363Z,0.50
2023-02-15T01:12:46.687Z,0.40
2023-02-15T01:15:57.434Z,0.40
2023-02-15T01:19:04.589Z,0.40
2023-02-15T01:22:10.579Z,0.30
2023-02-15T01:25:16.365Z,0.30
2023-02-15T01:28:22.522Z,0.30
2023-02-15T01:31:29.272Z,0.30
2023-02-15T01:34:35.334Z,0.20
2023-02-15T01:37:41.176Z,0.20
2023-02-15T01:40:47.396Z,0.10
2023-02-15T01:43:55.112Z,0.10
2023-02-15T01:47:02.251Z,0.10
2023-02-15T01:50:13.754Z,0.10
2023-02-15T01:53:26.248Z,0.10
2023-02-15T01:56:35.764Z,0.40
2023-02-15T01:59:45.111Z,0.50
2023-02-15T02:02:56.085Z,0.60
2023-02-15T02:06:02.395Z,0.50
2023-02-15T02:09:08.971Z,0.40
2023-02-15T02:12:15.197Z,0.30
2023-02-15T02:15:29.847Z,0.30
2023-02-15T02:18:49.076Z,0.20
2023-02-15T02:22:22.720Z,0.00
2023-02-15T02:25:56.985Z,0.00
2023-02-15T02:29:32.432Z,-0.10
2023-02-15T02:33:14.893Z,-0.20
2023-02-15T02:36:30.256Z,-0.20
2023-02-15T02:39:42.458Z,-0.20
2023-02-15T02:42:57.050Z,-0.10
2023-02-15T02:46:12.437Z,0.00
2023-02-15T02:49:18.485Z,-0.10
2023-02-15T02:52:44.057Z,-0.10
2023-02-15T02:55:54.206Z,-0.10
2023-02-15T02:59:03.896Z,0.00
2023-02-15T03:02:15.549Z,0.00
2023-02-15T03:05:26.394Z,0.00
2023-02-15T03:08:39.063Z,0.00
2023-02-15T03:11:46.887Z,0.20
2023-02-15T03:14:55.328Z,0.30
2023-02-15T03:18:04.880Z,0.30
2023-02-15T03:21:22.987Z,0.20
2023-02-15T03:24:34.248Z,0.20
2023-02-15T03:27:43.068Z,0.20
2023-02-15T03:30:54.340Z,0.20
2023-02-15T03:34:03.882Z,0.10
2023-02-15T03:37:15.573Z,0.20
2023-02-15T03:40:44.120Z,0.10
2023-02-15T03:43:55.720Z,0.10
2023-02-15T03:47:07.222Z,0.10
2023-02-15T03:50:32.102Z,0.00
2023-02-15T03:53:38.462Z,-0.10
2023-02-15T03:57:06.283Z,-0.10
2023-02-15T04:00:33.500Z,-0.10
2023-02-15T04:03:43.786Z,-0.10
2023-02-15T04:06:49.464Z,-0.10
2023-02-15T04:10:12.837Z,-0.20
2023-02-15T04:13:19.919Z,-0.10
2023-02-15T04:16:25.553Z,-0.20
2023-02-15T04:19:48.759Z,-0.10
2023-02-15T04:23:12.374Z,-0.20
2023-02-15T04:26:18.262Z,-0.20
2023-02-15T04:29:27.068Z,-0.30
2023-02-15T04:32:32.965Z,-0.30
2023-02-15T04:35:38.945Z,-0.30
2023-02-15T04:38:44.542Z,-0.30
2023-02-15T04:41:50.194Z,-0.30
2023-02-15T04:44:57.254Z,-0.30
2023-02-15T04:48:03.295Z,-0.30
2023-02-15T04:51:10.402Z,-0.30
2023-02-15T04:54:16.178Z,-0.40
2023-02-15T04:57:21.732Z,-0.40
2023-02-15T05:00:29.853Z,-0.40
2023-02-15T05:03:35.830Z,-0.30
2023-02-15T05:06:41.910Z,-0.20
2023-02-15T05:09:47.464Z,0.00
2023-02-15T05:12:53.258Z,0.30
2023-02-15T05:16:00.671Z,0.50
2023-02-15T05:19:06.810Z,0.70
2023-02-15T05:22:12.125Z,0.80
2023-02-15T05:25:35.539Z,0.80
2023-02-15T05:28:41.420Z,0.90
2023-02-15T05:31:49.377Z,0.80
2023-02-15T05:34:54.977Z,0.70
2023-02-15T05:38:00.841Z,0.70
2023-02-15T05:41:07.184Z,0.60
2023-02-15T05:44:14.092Z,0.70
2023-02-15T05:47:21.484Z,0.70
2023-02-15T05:50:28.799Z,0.60
2023-02-15T05:53:37.415Z,0.70
2023-02-15T05:56:43.322Z,0.80
2023-02-15T05:59:49.546Z,1.00
2023-02-15T06:02:57.238Z,1.10
2023-02-15T06:06:05.412Z,1.10
2023-02-15T06:09:15.802Z,1.10
2023-02-15T06:12:21.794Z,1.20
2023-02-15T06:15:28.253Z,1.20
2023-02-15T06:18:36.214Z,1.20
2023-02-15T06:21:42.338Z,1.20
2023-02-15T06:24:47.929Z,1.10
2023-02-15T06:27:53.843Z,1.10
2023-02-15T06:30:59.454Z,1.00
2023-02-15T06:34:07.000Z,0.90
2023-02-15T06:37:12.738Z,0.80
2023-02-15T06:40:18.628Z,0.80
2023-02-15T06:43:24.288Z,0.70
2023-02-15T06:46:31.105Z,0.80
2023-02-15T06:49:38.156Z,0.80
2023-02-15T06:52:43.828Z,0.90
2023-02-15T06:55:49.822Z,0.90
2023-02-15T06:58:55.846Z,0.80
2023-02-15T07:02:01.391Z,0.70
2023-02-15T07:05:09.005Z,0.70
2023-02-15T07:08:14.460Z,0.70
2023-02-15T07:11:37.776Z,0.70
2023-02-15T07:14:43.266Z,0.80
2023-02-15T07:17:49.610Z,0.80
2023-02-15T07:20:56.508Z,0.90
2023-02-15T07:24:02.108Z,0.90
2023-02-15T07:27:09.317Z,0.90
2023-02-15T07:30:17.927Z,0.90
2023-02-15T07:33:28.122Z,0.90
2023-02-15T07:36:34.989Z,1.10
2023-02-15T07:39:40.585Z,1.20
2023-02-15T07:42:46.196Z,1.30
2023-02-15T07:45:52.049Z,1.50
2023-02-15T07:48:57.639Z,1.60
2023-02-15T07:52:05.055Z,1.80
2023-02-15T07:55:13.989Z,1.90
2023-02-15T07:58:19.886Z,2.00
2023-02-15T08:01:30.142Z,2.10
2023-02-15T08:04:35.815Z,2.20
2023-02-15T08:07:43.014Z,2.30
2023-02-15T08:11:05.666Z,2.40
2023-02-15T08:14:13.428Z,2.60
2023-02-15T08:17:19.319Z,2.80
2023-02-15T08:20:25.625Z,2.90
2023-02-15T08:23:32.876Z,3.00
2023-02-15T08:26:41.972Z,3.20
2023-02-15T08:29:48.045Z,3.30
2023-02-15T08:32:54.055Z,3.50
2023-02-15T08:36:04.994Z,3.80
2023-02-15T08:39:13.020Z,4.10
2023-02-15T08:42:18.726Z,4.40
2023-02-15T08:45:26.529Z,4.60
2023-02-15T08:48:32.576Z,4.70
2023-02-15T08:51:40.816Z,4.80
2023-02-15T08:54:47.749Z,5.00
2023-02-15T08:57:56.811Z,5.20
2023-02-15T09:01:04.356Z,5.50
2023-02-15T09:04:11.364Z,5.70
2023-02-15T09:07:19.810Z,6.00
2023-02-15T09:10:27.927Z,6.10
2023-02-15T09:13:33.440Z,6.20
2023-02-15T09:16:40.476Z,6.40
2023-02-15T09:19:46.384Z,6.70
2023-02-15T09:22:56.985Z,7.10
2023-02-15T09:26:11.369Z,7.50
2023-02-15T09:29:18.570Z,7.80
2023-02-15T09:32:24.319Z,7.90
2023-02-15T09:35:30.804Z,8.10
2023-02-15T09:38:36.515Z,8.20
2023-02-15T09:42:22.050Z,8.40
2023-02-15T09:45:40.636Z,8.70
2023-02-15T09:48:51.502Z,8.90
2023-02-15T09:52:16.365Z,9.10
2023-02-15T09:55:37.957Z,9.30
2023-02-15T09:58:53.614Z,9.30
2023-02-15T10:02:13.000Z,9.50
2023-02-15T10:05:29.572Z,9.70
2023-02-15T10:08:51.985Z,9.70
2023-02-15T10:12:13.267Z,9.80
2023-02-15T10:15:42.587Z,10.00
2023-02-15T10:19:01.458Z,10.40
2023-02-15T10:22:23.422Z,10.80
2023-02-15T10:25:43.182Z,11.00
2023-02-15T10:28:51.761Z,10.90
2023-02-15T10:32:06.987Z,10.80
2023-02-15T10:35:22.589Z,10.90
2023-02-15T10:38:39.314Z,10.80
2023-02-15T10:41:54.270Z,11.20
2023-02-15T10:45:20.687Z,11.40
2023-02-15T10:48:40.289Z,11.70
2023-02-15T10:51:58.708Z,12.00
2023-02-15T10:55:11.722Z,12.40
2023-02-15T10:58:29.037Z,12.20
2023-02-15T11:01:38.237Z,12.00
2023-02-15T11:04:57.344Z,11.90
2023-02-15T11:08:08.553Z,11.70
2023-02-15T11:11:22.624Z,11.50
2023-02-15T11:14:40.107Z,11.20
2023-02-15T11:17:52.282Z,11.10
2023-02-15T11:21:04.470Z,11.10
2023-02-15T11:24:15.633Z,11.00
2023-02-15T11:27:23.931Z,11.10
2023-02-15T11:30:40.619Z,11.00
2023-02-15T11:33:50.330Z,11.10
2023-02-15T11:36:57.862Z,11.20
2023-02-15T11:40:23.626Z,11.40
2023-02-15T11:43:32.625Z,11.60
2023-02-15T11:46:39.551Z,12.00
2023-02-15T11:49:47.902Z,12.30
2023-02-15T11:52:59.000Z,12.40
2023-02-15T11:56:07.121Z,12.40
2023-02-15T11:59:18.357Z,12.30
2023-02-15T12:02:27.617Z,12.00
2023-02-15T12:05:35.845Z,12.00
2023-02-15T12:08:45.263Z,12.10
2023-02-15T12:11:52.549Z,12.10
2023-02-15T12:15:00.023Z,12.30
2023-02-15T12:18:07.030Z,12.50
2023-02-15T12:21:14.826Z,12.60
2023-02-15T12:24:23.600Z,12.60
2023-02-15T12:27:32.948Z,12.70
2023-02-15T12:30:40.066Z,12.70
2023-02-15T12:33:46.920Z,13.00
2023-02-15T12:36:58.933Z,13.10
2023-02-15T12:40:22.129Z,13.30
2023-02-15T12:43:34.405Z,13.30
2023-02-15T12:46:40.852Z,13.50
2023-02-15T12:50:54.823Z,13.60
2023-02-15T12:54:04.936Z,13.60
2023-02-15T12:57:36.678Z,13.60
2023-02-15T13:00:43.838Z,13.40
2023-02-15T13:04:02.402Z,13.40
2023-02-15T13:07:14.014Z,13.20
2023-02-15T13:10:29.927Z,13.20
2023-02-15T13:13:38.023Z,13.20
2023-02-15T13:16:47.633Z,13.40
2023-02-15T13:19:56.177Z,13.50
2023-02-15T13:23:06.560Z,13.50
2023-02-15T13:26:17.970Z,13.50
2023-02-15T13:29:26.977Z,13.40
2023-02-15T13:32:38.381Z,13.60
2023-02-15T13:35:52.067Z,13.60
2023-02-15T13:39:11.821Z,13.50
2023-02-15T13:42:23.640Z,13.50
2023-02-15T13:45:41.669Z,13.70
2023-02-15T13:49:01.121Z,13.70
2023-02-15T13:52:19.234Z,13.50
2023-02-15T13:55:48.126Z,13.30
2023-02-15T13:59:29.410Z,13.10
2023-02-15T14:03:05.108Z,13.10
2023-02-15T14:06:22.206Z,13.10
2023-02-15T14:09:42.685Z,13.00
2023-02-15T14:13:07.578Z,13.00
2023-02-15T14:16:22.498Z,13.10
2023-02-15T14:19:37.092Z,13.10
2023-02-15T14:22:47.971Z,13.10
2023-02-15T14:25:59.535Z,13.00
2023-02-15T14:29:16.682Z,13.10
2023-02-15T14:32:29.988Z,13.00
2023-02-15T14:35:36.877Z,13.10
2023-02-15T14:38:56.053Z,13.10
2023-02-15T14:42:05.869Z,13.00
2023-02-15T14:45:22.784Z,13.00
2023-02-15T14:48:33.352Z,13.00
2023-02-15T14:52:03.015Z,13.10
2023-02-15T14:55:11.377Z,13.10
2023-02-15T14:58:17.594Z,13.00
2023-02-15T15:01:28.811Z,13.00
2023-02-15T15:04:38.516Z,12.90
2023-02-15T15:07:47.891Z,12.80
2023-02-15T15:10:55.357Z,12.80
2023-02-15T15:14:02.592Z,12.70
2023-02-15T15:17:11.962Z,12.70
2023-02-15T15:20:46.544Z,12.60
2023-02-15T15:23:52.795Z,12.60
2023-02-15T15:27:32.295Z,12.50
2023-02-15T15:31:06.996Z,12.40
2023-02-15T15:34:41.642Z,12.20
2023-02-15T15:38:24.729Z,12.00
2023-02-15T15:41:43.891Z,12.00
2023-02-15T15:45:19.307Z,11.90
2023-02-15T15:48:39.189Z,11.70
2023-02-15T15:51:47.210Z,11.60
2023-02-15T15:54:57.048Z,11.50
2023-02-15T15:58:06.145Z,11.40
2023-02-15T16:01:14.764Z,11.30
2023-02-15T16:04:31.033Z,11.30
2023-02-15T16:07:36.580Z,11.20
2023-02-15T16:10:43.239Z,11.10
2023-02-15T16:13:53.178Z,11.00
2023-02-15T16:17:02.669Z,11.00
2023-02-15T16:20:19.792Z,10.90
2023-02-15T16:23:50.553Z,10.80
2023-02-15T16:27:18.104Z,10.80
2023-02-15T16:30:27.480Z,10.70
2023-02-15T16:33:38.657Z,10.60
2023-02-15T16:36:45.843Z,10.50
2023-02-15T16:39:52.336Z,10.40
2023-02-15T16:43:04.061Z,10.40
2023-02-15T16:46:14.775Z,10.20
2023-02-15T16:49:23.131Z,10.10
2023-02-15T16:52:31.558Z,10.00
2023-02-15T16:55:42.304Z,10.00
2023-02-15T16:58:52.011Z,9.90
2023-02-15T17:01:58.722Z,9.90
2023-02-15T17:05:18.753Z,9.80
2023-02-15T17:08:30.830Z,9.70
2023-02-15T17:11:38.631Z,9.60
2023-02-15T17:14:45.321Z,9.50
2023-02-15T17:17:51.013Z,9.40
2023-02-15T17:21:00.983Z,9.30
2023-02-15T17:24:17.666Z,9.20
2023-02-15T17:27:26.977Z,9.10
2023-02-15T17:30:35.124Z,9.10
2023-02-15T17:33:41.318Z,9.20
2023-02-15T17:36:59.898Z,9.20
2023-02-15T17:40:21.602Z,9.20
2023-02-15T17:43:28.657Z,9.20
2023-02-15T17:46:38.683Z,9.20
2023-02-15T17:49:45.016Z,9.20
2023-02-15T17:52:50.732Z,9.20
2023-02-15T17:55:58.167Z,9.10
2023-02-15T17:59:07.568Z,9.10
2023-02-15T18:02:31.411Z,9.00
2023-02-15T18:05:54.671Z,9.10
2023-02-15T18:09:18.489Z,9.10
2023-02-15T18:12:27.780Z,9.10
2023-02-15T18:15:33.934Z,9.00
2023-02-15T18:18:39.778Z,8.90
2023-02-15T18:21:47.149Z,8.90
2023-02-15T18:24:52.816Z,8.80
2023-02-15T18:28:00.284Z,8.80
2023-02-15T18:31:06.932Z,8.80
2023-02-15T18:34:26.500Z,8.80
2023-02-15T18:37:33.950Z,8.70
2023-02-15T18:40:39.747Z,8.70
2023-02-15T18:43:48.841Z,8.60
2023-02-15T18:46:54.303Z,8.60
2023-02-15T18:50:00.327Z,8.50
2023-02-15T18:53:07.963Z,8.50
2023-02-15T18:56:19.297Z,8.50
2023-02-15T18:59:28.408Z,8.40
2023-02-15T19:02:34.556Z,8.30
2023-02-15T19:05:41.961Z,8.20
2023-02-15T19:08:50.768Z,8.10
2023-02-15T19:11:57.925Z,8.10
2023-02-15T19:15:06.154Z,8.00
2023-02-15T19:18:12.611Z,7.90
2023-02-15T19:21:18.814Z,7.80
2023-02-15T19:24:31.145Z,7.80
2023-02-15T19:27:37.793Z,7.70
2023-02-15T19:30:45.659Z,7.70
2023-02-15T19:33:51.440Z,7.80
2023-02-15T19:36:58.001Z,7.70
2023-02-15T19:40:04.034Z,7.70
2023-02-15T19:43:17.709Z,7.60
2023-02-15T19:46:27.808Z,7.60
2023-02-15T19:49:34.947Z,7.50
2023-02-15T19:52:41.232Z,7.40
2023-02-15T19:55:48.878Z,7.20
2023-02-15T19:58:57.878Z,7.20
2023-02-15T20:02:06.444Z,7.20
2023-02-15T20:05:12.628Z,7.10
2023-02-15T20:08:20.086Z,7.10
2023-02-15T20:11:25.910Z,7.00
2023-02-15T20:14:32.134Z,7.10
2023-02-15T20:17:39.178Z,7.10
2023-02-15T20:20:47.923Z,7.00
2023-02-15T20:23:54.603Z,7.10
2023-02-15T20:27:00.895Z,7.10
2023-02-15T20:30:15.866Z,7.10
2023-02-15T20:33:23.630Z,7.10
2023-02-15T20:36:29.207Z,7.10
2023-02-15T20:39:37.578Z,7.20
2023-02-15T20:42:43.219Z,7.20
2023-02-15T20:45:49.873Z,7.20
2023-02-15T20:48:56.921Z,7.20
2023-02-15T20:52:04.667Z,7.10
2023-02-15T20:55:14.954Z,7.10
2023-02-15T20:58:23.113Z,7.00
2023-02-15T21:01:29.010Z,6.90
2023-02-15T21:04:36.495Z,6.90
2023-02-15T21:07:42.053Z,6.90
2023-02-15T21:10:50.421Z,6.80
2023-02-15T21:13:56.169Z,6.70
2023-02-15T21:17:01.935Z,6.70
2023-02-15T21:20:14.388Z,6.60
2023-02-15T21:23:24.991Z,6.60
2023-02-15T21:26:30.729Z,6.60
2023-02-15T21:29:36.849Z,6.60
2023-02-15T21:32:42.306Z,6.60
2023-02-15T21:35:52.191Z,6.60
2023-02-15T21:38:57.779Z,6.60
2023-02-15T21:42:21.005Z,6.70
2023-02-15T21:45:44.138Z,6.60
2023-02-15T21:48:50.138Z,6.50
2023-02-15T21:52:14.491Z,6.50
2023-02-15T21:55:20.117Z,6.50
2023-02-15T21:58:27.388Z,6.50
2023-02-15T22:01:33.131Z,6.40
2023-02-15T22:04:39.603Z,6.40
2023-02-15T22:07:46.825Z,6.30
2023-02-15T22:10:54.503Z,6.30
2023-02-15T22:14:00.434Z,6.30
2023-02-15T22:17:16.466Z,6.30
2023-02-15T22:20:23.817Z,6.20
2023-02-15T22:23:31.128Z,6.10
2023-02-15T22:26:36.856Z,6.10
2023-02-15T22:29:42.774Z,6.10
2023-02-15T22:32:48.728Z,6.10
2023-02-15T22:35:54.893Z,6.00
2023-02-15T22:39:02.358Z,6.10
2023-02-15T22:42:20.876Z,6.10
2023-02-15T22:45:28.489Z,6.00
2023-02-15T22:48:35.088Z,6.00
2023-02-15T22:51:41.316Z,6.00
2023-02-15T22:54:48.677Z,6.00
2023-02-15T22:57:57.066Z,6.10
2023-02-15T23:01:03.804Z,6.00
2023-02-15T23:04:16.282Z,6.00
2023-02-15T23:07:23.216Z,6.00
2023-02-15T23:10:31.970Z,6.00
2023-02-15T23:13:38.395Z,6.00
2023-02-15T23:16:44.272Z,6.00
2023-02-15T23:19:50.155Z,5.90
2023-02-15T23:22:56.025Z,5.90
2023-02-15T23:26:04.604Z,5.80
2023-02-15T23:29:15.379Z,5.70
2023-02-15T23:32:22.244Z,5.60
2023-02-15T23:35:28.495Z,5.50
2023-02-15T23:38:34.542Z,5.60
2023-02-15T23:41:40.420Z,5.60
2023-02-15T23:44:47.325Z,5.70
2023-02-15T23:48:10.867Z,5.60
2023-02-15T23:51:16.825Z,5.60
2023-02-15T23:54:25.999Z,5.60
2023-02-15T23:57:33.117Z,5.60
